Flight Track Log - Related Links

Times and Time Zones

All times are in EDT time to prevent confusion due to time zone crossing. See the EJA102 flight status page for this flight to view local times or setup timezone preferences in your user account.

Time Position Orientation Groundspeed Altitude Reporting Facility
EDT Latitude Longitude Course Direction KTS MPH feet Rate Location/Type
Wed 09:17:12 AM 41.6844 -70.9753 316° Northwest 154 177 700  Level Boston Center
Wed 09:17:43 AM 41.7056 -71.0025 316° Northwest 176 203 2,000 2,374 Climbing Boston Center
Wed 09:18:43 AM 41.7083 -71.0664 273° West 198 228 4,300 2,250 Climbing Boston Center
Wed 09:19:43 AM 41.7139 -71.1636 274° West 236 272 6,500 2,250 Climbing Boston Center
Wed 09:20:43 AM 41.7167 -71.2469 273° West 253 291 8,800 1,750 Climbing Boston Center
Wed 09:21:43 AM 41.7219 -71.3497 274° West 253 291 10,000 909 Climbing Boston Center
Wed 09:22:55 AM 41.7394 -71.4497 283° West 293 337 10,800 1,136 Climbing Boston Center
Wed 09:23:55 AM 41.8072 -71.5767 306° West 316 364 12,500 1,550 Climbing Boston Center
Wed 09:24:55 AM 41.8622 -71.6736 307° West 326 375 13,900 1,400 Climbing Boston Center
Wed 09:25:55 AM 41.8733 -71.7906 277° West 319 367 15,300 1,350 Climbing Boston Center
Wed 09:26:55 AM 41.8739 -71.8992 270° West 324 373 16,600 1,350 Climbing Boston Center
Wed 09:27:55 AM 41.8828 -72.0219 276° West 331 381 18,000 1,400 Climbing Boston Center
Wed 09:28:55 AM 41.8914 -72.1444 275° West 331 381 19,400 1,450 Climbing Boston Center
Wed 09:29:55 AM 41.9000 -72.2644 276° West 331 381 20,900 1,450 Climbing Boston Center
Wed 09:30:55 AM 41.9086 -72.3872 275° West 331 381 22,300 1,300 Climbing Boston Center
Wed 09:31:55 AM 41.9169 -72.4958 276° West 331 381 23,500 1,300 Climbing Boston Center
Wed 09:32:55 AM 41.9250 -72.6186 275° West 331 381 24,900 1,300 Climbing Boston Center
Wed 09:33:55 AM 41.9353 -72.7556 276° West 331 381 26,100 1,100 Climbing Boston Center
Wed 09:34:55 AM 41.9389 -72.8839 272° West 336 387 27,100 1,050 Climbing Boston Center
Wed 09:35:55 AM 41.8861 -73.0172 242° Southwest 357 411 28,200 1,048 Climbing Boston Center
Wed 09:38:04 AM 41.7458 -73.2403 230° Southwest 369 425 30,400 1,016 Climbing New York Center
Wed 09:39:04 AM 41.6833 -73.3433 231° Southwest 369 425 31,400 807 Climbing New York Center
Wed 09:40:03 AM 41.6272 -73.4356 231° Southwest 369 425 32,000 300 Climbing New York Center
Wed 09:41:04 AM 41.5642 -73.5439 232° Southwest 369 425 32,000  Level New York Center
Wed 09:42:04 AM 41.4950 -73.6600 232° Southwest 384 442 32,000  Level New York Center
Wed 09:43:05 AM 41.4189 -73.7783 229° Southwest 403 464 32,000  Level New York Center
Wed 09:44:03 AM 41.3453 -73.8967 230° Southwest 419 482 32,000  Level New York Center
Wed 09:45:04 AM 41.2711 -74.0175 231° Southwest 426 490 32,000  Level New York Center
Wed 09:46:03 AM 41.1969 -74.1406 231° Southwest 426 490 32,000  Level New York Center
Wed 09:47:04 AM 41.1097 -74.2683 228° Southwest 432 497 32,000 -50 Level New York Center
Wed 09:48:04 AM 41.0375 -74.3883 231° Southwest 432 497 31,900 -1,200 Descending New York Center
Wed 09:49:04 AM 40.9608 -74.5053 229° Southwest 427 491 29,600 -1,934 Descending New York Center
Wed 09:50:05 AM 40.8944 -74.6306 235° Southwest 422 486 28,000 -807 Descending New York Center
Wed 09:51:03 AM 40.8439 -74.7675 244° Southwest 414 476 28,000  Level New York Center
Wed 09:52:04 AM 40.7833 -74.8983 239° Southwest 430 495 28,000  Level New York Center
Wed 09:53:04 AM 40.7200 -75.0342 238° Southwest 439 505 28,000  Level New York Center
Wed 09:54:04 AM 40.6547 -75.1697 238° Southwest 439 505 28,000  Level New York Center
Wed 09:55:05 AM 40.5908 -75.3106 239° Southwest 439 505 28,000  Level New York Center
Wed 09:56:06 AM 40.5339 -75.4350 239° Southwest 439 505 28,000 -1,059 Level New York Center
Wed 09:57:04 AM 40.4614 -75.5803 237° Southwest 439 505 25,900 -2,218 Descending New York Center
Wed 09:58:05 AM 40.3997 -75.7122 238° Southwest 439 505 23,600 -2,182 Descending New York Center
Wed 09:59:05 AM 40.3381 -75.8383 237° Southwest 429 494 21,500 -1,800 Descending New York Center
Wed 10:00:05 AM 40.2764 -75.9619 237° Southwest 424 488 20,000 -1,220 Descending New York Center
Wed 10:01:03 AM 40.2189 -76.0881 239° Southwest 413 475 19,100 -1,190 Descending New York Center
Wed 10:02:06 AM 40.1639 -76.1978 237° Southwest 407 468 17,600 -1,257 Descending New York Center
Wed 10:04:14 AM 40.0500 -76.4500 240° Southwest 373 429 15,100 -794 Descending Potomac TRACON
Wed 10:05:15 AM 40.0000 -76.5667 241° Southwest 364 419 15,100  Level Potomac TRACON
Wed 10:06:15 AM 39.9333 -76.6833 233° Southwest 363 418 15,100 50 Level Potomac TRACON
Wed 10:07:15 AM 39.8833 -76.7833 237° Southwest 361 415 15,200  Climbing Potomac TRACON
Wed 10:08:15 AM 39.8333 -76.9000 241° Southwest 363 418 15,100 -650 Descending Potomac TRACON
Wed 10:09:15 AM 39.7833 -77.0167 241° Southwest 362 417 13,900 -1,250 Descending Potomac TRACON
Wed 10:10:15 AM 39.7333 -77.1167 237° Southwest 357 411 12,600 -1,250 Descending Potomac TRACON
Wed 10:11:15 AM 39.6833 -77.2333 241° Southwest 346 398 11,400 -1,200 Descending Potomac TRACON
Wed 10:12:15 AM 39.6333 -77.3000 226° Southwest 307 353 10,200 -1,140 Descending Potomac TRACON
Wed 10:13:16 AM 39.5500 -77.3167 189° South 270 311 9,100 -1,041 Descending Potomac TRACON
Wed 10:14:16 AM 39.4833 -77.3500 201° Southwest 274 315 8,100 -1,100 Descending Potomac TRACON
Wed 10:15:16 AM 39.4000 -77.3667 189° South 276 318 6,900 -1,150 Descending Potomac TRACON
Wed 10:16:16 AM 39.3333 -77.3667 180° South 275 316 5,800 -1,050 Descending Potomac TRACON
Wed 10:17:16 AM 39.2500 -77.3667 180° South 278 320 4,800 -850 Descending Potomac TRACON
Wed 10:18:16 AM 39.1667 -77.3500 171° South 277 319 4,100 -400 Descending Potomac TRACON
Wed 10:19:16 AM 39.1000 -77.3500 180° South 277 319 4,000 -50 Descending Potomac TRACON
Wed 10:20:16 AM 39.0167 -77.3500 180° South 273 314 4,000  Level Potomac TRACON
Wed 10:21:16 AM 38.9333 -77.3500 180° South 280 322 4,000 -450 Level Potomac TRACON
Wed 10:22:16 AM 38.8667 -77.3667 191° South 261 300 3,100 -600 Descending Potomac TRACON
Wed 10:23:16 AM 38.8000 -77.3833 191° South 260 299 2,800 -550 Descending Potomac TRACON
Wed 10:24:16 AM 38.8333 -77.4333 311° West 218 251 2,000 -850 Descending Potomac TRACON
Wed 10:25:16 AM 38.8833 -77.4333 360° North 167 192 1,100 -900 Descending Potomac TRACON
Wed 10:27:00 AM 38.9333 -77.4500 349° North  Level FlightAware Approximate

Login

Don't have an account? Register now (free) for customized features, flight alerts, and more!